createdAt,value
2018-08-10T00:00:02.920Z,24.9
2018-08-10T00:01:03.041Z,24.9
2018-08-10T00:02:02.767Z,24.91
2018-08-10T00:03:02.901Z,24.93
2018-08-10T00:04:02.991Z,24.93
2018-08-10T00:05:02.929Z,24.91
2018-08-10T00:06:02.732Z,24.91
2018-08-10T00:07:02.910Z,24.93
2018-08-10T00:08:02.872Z,24.91
2018-08-10T00:09:03.172Z,24.93
2018-08-10T00:10:03.198Z,24.87
2018-08-10T00:11:02.961Z,24.91
2018-08-10T00:12:02.788Z,24.91
2018-08-10T00:13:02.981Z,24.93
2018-08-10T00:14:03.055Z,24.9
2018-08-10T00:15:02.864Z,24.88
2018-08-10T00:16:02.894Z,24.91
2018-08-10T00:17:03.033Z,24.88
2018-08-10T00:18:03.175Z,24.91
2018-08-10T00:19:02.751Z,24.91
2018-08-10T00:20:03.034Z,24.9
2018-08-10T00:21:02.895Z,24.88
2018-08-10T00:22:02.920Z,24.91
2018-08-10T00:23:02.989Z,24.88
2018-08-10T00:24:02.716Z,24.91
2018-08-10T00:25:02.807Z,24.91
2018-08-10T00:26:02.701Z,24.9
2018-08-10T00:27:02.731Z,24.93
2018-08-10T00:28:02.813Z,24.94
2018-08-10T00:29:02.858Z,24.94
2018-08-10T00:30:02.886Z,24.93
2018-08-10T00:31:02.797Z,24.93
2018-08-10T00:32:02.849Z,24.93
2018-08-10T00:33:02.770Z,24.95
2018-08-10T00:34:02.937Z,24.93
2018-08-10T00:35:02.896Z,24.91
2018-08-10T00:36:02.827Z,24.93
2018-08-10T00:37:02.975Z,24.94
2018-08-10T00:38:02.833Z,24.95
2018-08-10T00:39:02.787Z,24.95
2018-08-10T00:40:02.836Z,24.94
2018-08-10T00:41:02.939Z,24.97
2018-08-10T00:42:02.998Z,24.93
2018-08-10T00:43:02.879Z,24.95
2018-08-10T00:44:02.939Z,24.93
2018-08-10T00:45:02.888Z,24.94
2018-08-10T00:46:03.055Z,24.94
2018-08-10T00:47:02.827Z,24.93
2018-08-10T00:48:03.019Z,24.93
2018-08-10T00:49:02.806Z,24.91
2018-08-10T00:50:03.156Z,24.91
2018-08-10T00:51:02.940Z,24.91
2018-08-10T00:52:02.896Z,24.91
2018-08-10T00:53:03.252Z,24.91
2018-08-10T00:54:02.847Z,24.9
2018-08-10T00:55:02.787Z,24.9
2018-08-10T00:56:02.793Z,24.9
2018-08-10T00:57:02.994Z,24.91
2018-08-10T00:58:02.758Z,24.9
2018-08-10T00:59:03.030Z,24.9
2018-08-10T01:00:02.656Z,24.9
2018-08-10T01:01:02.762Z,24.91
2018-08-10T01:02:02.998Z,24.9
2018-08-10T01:03:02.991Z,24.91
2018-08-10T01:04:02.936Z,24.88
2018-08-10T01:05:02.797Z,24.9
2018-08-10T01:06:02.854Z,24.9
2018-08-10T01:07:02.794Z,24.91
2018-08-10T01:08:02.867Z,24.91
2018-08-10T01:09:02.805Z,24.9
2018-08-10T01:10:02.819Z,24.9
2018-08-10T01:11:02.940Z,24.91
2018-08-10T01:12:02.887Z,24.91
2018-08-10T01:13:02.907Z,24.87
2018-08-10T01:14:03.091Z,24.91
2018-08-10T01:15:02.905Z,24.88
2018-08-10T01:16:02.820Z,24.9
2018-08-10T01:17:03.045Z,24.9
2018-08-10T01:18:02.788Z,24.91
2018-08-10T01:19:03.342Z,24.88
2018-08-10T01:20:02.751Z,24.88
2018-08-10T01:21:02.809Z,24.88
2018-08-10T01:22:02.887Z,24.9
2018-08-10T01:23:02.918Z,24.88
2018-08-10T01:24:02.814Z,24.88
2018-08-10T01:25:02.967Z,24.88
2018-08-10T01:26:02.934Z,24.9
2018-08-10T01:27:02.910Z,24.9
2018-08-10T01:28:02.859Z,24.87
2018-08-10T01:29:03.602Z,24.9
2018-08-10T01:30:02.893Z,24.9
2018-08-10T01:31:02.997Z,24.88
2018-08-10T01:32:03.000Z,24.87
2018-08-10T01:33:02.989Z,24.9
2018-08-10T01:34:03.001Z,24.87
2018-08-10T01:35:02.854Z,24.88
2018-08-10T01:36:02.977Z,24.88
2018-08-10T01:37:02.770Z,24.88
2018-08-10T01:38:02.799Z,24.9
2018-08-10T01:39:02.818Z,24.88
2018-08-10T01:40:02.814Z,24.9
2018-08-10T01:41:02.918Z,24.9
2018-08-10T01:42:02.789Z,24.87
2018-08-10T01:43:02.913Z,24.87
2018-08-10T01:44:03.000Z,24.9
2018-08-10T01:45:02.706Z,24.88
2018-08-10T01:46:02.906Z,24.88
2018-08-10T01:47:02.810Z,24.9
2018-08-10T01:48:02.959Z,24.87
2018-08-10T01:49:02.842Z,24.87
2018-08-10T01:50:02.910Z,24.87
2018-08-10T01:51:02.945Z,24.87
2018-08-10T01:52:02.828Z,24.87
2018-08-10T01:53:02.797Z,24.87
2018-08-10T01:54:02.694Z,24.88
2018-08-10T01:55:02.822Z,24.86
2018-08-10T01:56:02.747Z,24.88
2018-08-10T01:57:02.997Z,24.87
2018-08-10T01:58:02.831Z,24.87
2018-08-10T01:59:02.927Z,24.86
2018-08-10T02:00:02.825Z,24.84
2018-08-10T02:01:02.971Z,24.87
2018-08-10T02:02:02.915Z,24.88
2018-08-10T02:03:02.745Z,24.87
2018-08-10T02:04:02.935Z,24.87
2018-08-10T02:05:02.909Z,24.87
2018-08-10T02:06:02.712Z,24.87
2018-08-10T02:07:02.719Z,24.87
2018-08-10T02:08:02.929Z,24.84
2018-08-10T02:09:03.084Z,24.86
2018-08-10T02:10:03.022Z,24.87
2018-08-10T02:11:02.765Z,24.87
2018-08-10T02:12:02.643Z,24.87
2018-08-10T02:13:02.867Z,24.86
2018-08-10T02:14:02.943Z,24.84
2018-08-10T02:15:02.875Z,24.86
2018-08-10T02:16:02.849Z,24.86
2018-08-10T02:17:03.121Z,24.87
2018-08-10T02:18:02.853Z,24.87
2018-08-10T02:19:02.928Z,24.84
2018-08-10T02:20:02.761Z,24.86
2018-08-10T02:21:02.671Z,24.86
2018-08-10T02:22:03.023Z,24.86
2018-08-10T02:23:02.859Z,24.86
2018-08-10T02:24:02.845Z,24.84
2018-08-10T02:25:02.890Z,24.87
2018-08-10T02:26:02.735Z,24.86
2018-08-10T02:27:02.807Z,24.86
2018-08-10T02:28:02.698Z,24.84
2018-08-10T02:29:02.970Z,24.83
2018-08-10T02:30:03.148Z,24.84
2018-08-10T02:31:02.747Z,24.87
2018-08-10T02:32:02.932Z,24.84
2018-08-10T02:33:02.918Z,24.83
2018-08-10T02:34:02.843Z,24.84
2018-08-10T02:35:02.906Z,24.84
2018-08-10T02:36:02.864Z,24.84
2018-08-10T02:37:02.962Z,24.84
2018-08-10T02:38:02.762Z,24.84
2018-08-10T02:39:02.837Z,24.83
2018-08-10T02:40:02.875Z,24.84
2018-08-10T02:41:03.123Z,24.83
2018-08-10T02:42:02.855Z,24.83
2018-08-10T02:43:02.679Z,24.84
2018-08-10T02:44:02.999Z,24.84
2018-08-10T02:45:03.129Z,24.83
2018-08-10T02:46:02.888Z,24.83
2018-08-10T02:47:03.019Z,24.84
2018-08-10T02:48:02.872Z,24.87
2018-08-10T02:49:02.933Z,24.81
2018-08-10T02:50:02.692Z,24.86
2018-08-10T02:51:02.872Z,24.83
2018-08-10T02:52:02.752Z,24.84
2018-08-10T02:53:02.971Z,24.86
2018-08-10T02:54:02.952Z,24.81
2018-08-10T02:55:02.875Z,24.83
2018-08-10T02:56:02.899Z,24.84
2018-08-10T02:57:02.877Z,24.84
2018-08-10T02:58:02.717Z,24.81
2018-08-10T02:59:02.708Z,24.84
2018-08-10T03:00:02.903Z,24.83
2018-08-10T03:01:02.734Z,24.81
2018-08-10T03:02:02.879Z,24.83
2018-08-10T03:03:02.815Z,24.8
2018-08-10T03:04:02.767Z,24.83
2018-08-10T03:05:02.948Z,24.81
2018-08-10T03:06:02.820Z,24.81
2018-08-10T03:07:02.877Z,24.8
2018-08-10T03:08:02.821Z,24.83
2018-08-10T03:09:02.875Z,24.84
2018-08-10T03:10:02.556Z,24.8
2018-08-10T03:11:02.792Z,24.81
2018-08-10T03:12:02.760Z,24.8
2018-08-10T03:13:03.032Z,24.81
2018-08-10T03:14:02.751Z,24.81
2018-08-10T03:15:02.866Z,24.81
2018-08-10T03:16:03.039Z,24.8
2018-08-10T03:17:02.856Z,24.83
2018-08-10T03:18:02.732Z,24.8
2018-08-10T03:19:02.880Z,24.8
2018-08-10T03:20:03.028Z,24.78
2018-08-10T03:21:02.859Z,24.8
2018-08-10T03:22:03.130Z,24.78
2018-08-10T03:23:02.804Z,24.81
2018-08-10T03:24:03.485Z,24.8
2018-08-10T03:25:03.118Z,24.8
2018-08-10T03:26:03.200Z,24.8
2018-08-10T03:27:02.954Z,24.78
2018-08-10T03:28:02.740Z,24.78
2018-08-10T03:29:03.013Z,24.8
2018-08-10T03:30:02.836Z,24.8
2018-08-10T03:31:02.981Z,24.8
2018-08-10T03:32:02.807Z,24.77
2018-08-10T03:33:02.997Z,24.8
2018-08-10T03:34:02.905Z,24.81
2018-08-10T03:35:02.902Z,24.8
2018-08-10T03:36:02.752Z,24.78
2018-08-10T03:37:02.814Z,24.8
2018-08-10T03:38:03.014Z,24.81
2018-08-10T03:39:02.808Z,24.78
2018-08-10T03:40:02.907Z,24.77
2018-08-10T03:41:03.080Z,24.78
2018-08-10T03:42:03.136Z,24.77
2018-08-10T03:43:02.764Z,24.77
2018-08-10T03:44:02.774Z,24.78
2018-08-10T03:45:02.981Z,24.77
2018-08-10T03:46:02.792Z,24.8
2018-08-10T03:47:02.698Z,24.8
2018-08-10T03:48:02.918Z,24.8
2018-08-10T03:49:02.968Z,24.77
2018-08-10T03:50:02.759Z,24.77
2018-08-10T03:51:02.977Z,24.78
2018-08-10T03:52:02.882Z,24.77
2018-08-10T03:53:02.819Z,24.78
2018-08-10T03:54:02.850Z,24.76
2018-08-10T03:55:02.891Z,24.77
2018-08-10T03:56:02.894Z,24.76
2018-08-10T03:57:02.958Z,24.76
2018-08-10T03:58:02.745Z,24.74
2018-08-10T03:59:02.914Z,24.77
2018-08-10T04:00:02.801Z,24.77
2018-08-10T04:01:02.934Z,24.76
2018-08-10T04:02:03.083Z,24.74
2018-08-10T04:03:02.838Z,24.76
2018-08-10T04:04:02.618Z,24.74
2018-08-10T04:05:02.781Z,24.77
2018-08-10T04:06:02.830Z,24.77
2018-08-10T04:07:02.870Z,24.74
2018-08-10T04:08:02.773Z,24.59
2018-08-10T04:09:02.755Z,24.43
2018-08-10T04:10:02.870Z,24.28
2018-08-10T04:11:02.902Z,24.21
2018-08-10T04:12:02.985Z,24.11
2018-08-10T04:13:02.643Z,23.92
2018-08-10T04:14:02.934Z,23.91
2018-08-10T04:15:02.875Z,23.88
2018-08-10T04:16:02.885Z,23.8
2018-08-10T04:17:02.812Z,23.77
2018-08-10T04:18:02.896Z,23.73
2018-08-10T04:19:02.745Z,23.66
2018-08-10T04:20:02.937Z,23.52
2018-08-10T04:21:02.927Z,23.52
2018-08-10T04:22:02.788Z,23.45
2018-08-10T04:23:02.795Z,23.43
2018-08-10T04:24:02.812Z,23.33
2018-08-10T04:25:02.730Z,23.3
2018-08-10T04:26:03.012Z,23.22
2018-08-10T04:27:02.870Z,23.21
2018-08-10T04:28:02.983Z,22.95
2018-08-10T04:29:02.881Z,22.66
2018-08-10T04:30:03.030Z,22.5
2018-08-10T04:31:02.884Z,22.53
2018-08-10T04:32:02.927Z,22.49
2018-08-10T04:33:02.876Z,22.38
2018-08-10T04:34:02.775Z,22.39
2018-08-10T04:35:03.117Z,22.28
2018-08-10T04:36:02.760Z,22.29
2018-08-10T04:37:02.858Z,22.25
2018-08-10T04:38:02.882Z,22.23
2018-08-10T04:39:02.926Z,22.12
2018-08-10T04:40:02.819Z,22.05
2018-08-10T04:41:02.720Z,22.05
2018-08-10T04:42:02.830Z,21.99
2018-08-10T04:43:02.759Z,21.96
2018-08-10T04:44:02.897Z,21.96
2018-08-10T04:45:03.007Z,21.95
2018-08-10T04:46:02.862Z,21.92
2018-08-10T04:47:02.740Z,21.89
2018-08-10T04:48:03.129Z,21.92
2018-08-10T04:49:02.685Z,21.92
2018-08-10T04:50:02.835Z,21.91
2018-08-10T04:51:03.176Z,22.06
2018-08-10T04:52:02.840Z,22.05
2018-08-10T04:53:02.857Z,22.02
2018-08-10T04:54:02.869Z,21.96
2018-08-10T04:55:03.516Z,21.89
2018-08-10T04:56:02.708Z,21.89
2018-08-10T04:57:02.868Z,21.77
2018-08-10T04:58:02.867Z,21.81
2018-08-10T04:59:02.748Z,21.94
2018-08-10T05:00:02.789Z,21.92
2018-08-10T05:01:02.814Z,21.96
2018-08-10T05:02:02.793Z,21.99
2018-08-10T05:03:02.774Z,21.99
2018-08-10T05:04:03.114Z,22.04
2018-08-10T05:05:02.813Z,22.06
2018-08-10T05:06:02.623Z,22.02
2018-08-10T05:07:02.750Z,21.95
2018-08-10T05:08:02.895Z,21.99
2018-08-10T05:09:02.956Z,22.05
2018-08-10T05:10:02.812Z,22.11
2018-08-10T05:11:02.809Z,22.08
2018-08-10T05:12:02.938Z,22.09
2018-08-10T05:13:02.875Z,22.11
2018-08-10T05:14:03.063Z,22.11
2018-08-10T05:15:02.800Z,22.09
2018-08-10T05:16:02.680Z,22.11
2018-08-10T05:17:03.147Z,22.11
2018-08-10T05:18:02.987Z,22.12
2018-08-10T05:19:02.914Z,22.16
2018-08-10T05:20:02.953Z,22.18
2018-08-10T05:21:02.815Z,22.15
2018-08-10T05:22:02.861Z,22.19
2018-08-10T05:23:02.810Z,22.18
2018-08-10T05:24:03.006Z,22.13
2018-08-10T05:25:02.677Z,22.13
2018-08-10T05:26:02.901Z,22.12
2018-08-10T05:27:02.852Z,22.16
2018-08-10T05:28:02.806Z,22.19
2018-08-10T05:29:02.693Z,22.18
2018-08-10T05:30:02.786Z,22.15
2018-08-10T05:31:02.874Z,22.15
2018-08-10T05:32:02.832Z,22.19
2018-08-10T05:33:02.924Z,22.18
2018-08-10T05:34:02.656Z,22.16
2018-08-10T05:35:02.744Z,22.15
2018-08-10T05:36:02.749Z,22.19
2018-08-10T05:37:02.709Z,22.19
2018-08-10T05:38:02.760Z,22.22
2018-08-10T05:39:02.889Z,22.22
2018-08-10T05:40:02.590Z,22.19
2018-08-10T05:41:02.786Z,22.23
2018-08-10T05:42:02.877Z,22.28
2018-08-10T05:43:02.645Z,22.33
2018-08-10T05:44:03.126Z,22.4
2018-08-10T05:45:02.892Z,22.49
2018-08-10T05:46:02.731Z,22.54
2018-08-10T05:47:03.280Z,22.57
2018-08-10T05:48:03.466Z,22.62
2018-08-10T05:49:02.850Z,22.66
2018-08-10T05:50:02.736Z,22.73
2018-08-10T05:51:03.564Z,22.74
2018-08-10T05:52:02.831Z,22.81
2018-08-10T05:53:02.998Z,22.83
2018-08-10T05:54:02.979Z,22.84
2018-08-10T05:55:02.830Z,22.87
2018-08-10T05:56:02.732Z,22.91
2018-08-10T05:57:02.884Z,22.92
2018-08-10T05:58:02.833Z,22.94
2018-08-10T05:59:02.878Z,22.99
2018-08-10T06:00:02.844Z,22.98
2018-08-10T06:01:02.869Z,22.99
2018-08-10T06:02:02.749Z,23.01
2018-08-10T06:03:02.936Z,23.02
2018-08-10T06:04:04.559Z,23.02
2018-08-10T06:05:02.896Z,23.03
2018-08-10T06:06:02.840Z,23.05
2018-08-10T06:07:02.698Z,23.08
2018-08-10T06:08:02.815Z,23.08
2018-08-10T06:09:02.799Z,23.11
2018-08-10T06:10:02.749Z,23.11
2018-08-10T06:11:02.889Z,23.12
2018-08-10T06:12:02.906Z,23.15
2018-08-10T06:13:03.165Z,23.15
2018-08-10T06:14:02.892Z,23.17
2018-08-10T06:15:03.024Z,23.18
2018-08-10T06:16:02.717Z,23.19
2018-08-10T06:17:02.951Z,23.19
2018-08-10T06:18:02.822Z,23.22
2018-08-10T06:19:02.962Z,23.25
2018-08-10T06:20:03.423Z,23.23
2018-08-10T06:21:02.661Z,23.26
2018-08-10T06:22:02.891Z,23.28
2018-08-10T06:23:02.867Z,23.26
2018-08-10T06:24:02.907Z,23.28
2018-08-10T06:25:03.776Z,23.3
2018-08-10T06:26:02.781Z,23.3
2018-08-10T06:27:02.802Z,23.3
2018-08-10T06:28:02.685Z,23.32
2018-08-10T06:29:03.055Z,23.29
2018-08-10T06:30:02.943Z,23.33
2018-08-10T06:31:02.792Z,23.33
2018-08-10T06:32:02.910Z,23.33
2018-08-10T06:33:02.831Z,23.36
2018-08-10T06:34:04.142Z,23.32
2018-08-10T06:35:03.054Z,23.35
2018-08-10T06:36:02.688Z,23.35
2018-08-10T06:37:02.629Z,23.37
2018-08-10T06:38:02.723Z,23.39
2018-08-10T06:39:02.859Z,23.39
2018-08-10T06:40:02.941Z,23.39
2018-08-10T06:41:02.857Z,23.4
2018-08-10T06:42:02.617Z,23.4
2018-08-10T06:43:03.315Z,23.42
2018-08-10T06:44:02.914Z,23.42
2018-08-10T06:45:04.020Z,23.42
2018-08-10T06:46:02.759Z,23.46
2018-08-10T06:47:02.741Z,23.46
2018-08-10T06:48:02.790Z,23.46
2018-08-10T06:49:02.766Z,23.49
2018-08-10T06:50:02.893Z,23.47
2018-08-10T06:51:03.119Z,23.49
2018-08-10T06:52:02.875Z,23.49
2018-08-10T06:53:02.798Z,23.52
2018-08-10T06:54:02.956Z,23.5
2018-08-10T06:55:02.858Z,23.5
2018-08-10T06:56:03.357Z,23.53
2018-08-10T06:57:02.958Z,23.52
2018-08-10T06:58:02.730Z,23.52
2018-08-10T06:59:02.815Z,23.53
2018-08-10T07:00:02.674Z,23.56
2018-08-10T07:01:03.605Z,23.56
2018-08-10T07:02:02.779Z,23.54
2018-08-10T07:03:02.955Z,23.57
2018-08-10T07:04:02.779Z,23.56
2018-08-10T07:05:02.824Z,23.59
2018-08-10T07:06:02.760Z,23.56
2018-08-10T07:07:02.875Z,23.59
2018-08-10T07:08:02.645Z,23.59
2018-08-10T07:09:02.626Z,23.59
2018-08-10T07:10:02.843Z,23.6
2018-08-10T07:11:02.724Z,23.6
2018-08-10T07:12:02.894Z,23.6
2018-08-10T07:13:03.211Z,23.6
2018-08-10T07:14:02.782Z,23.59
2018-08-10T07:15:02.910Z,23.6
2018-08-10T07:16:02.732Z,23.59
2018-08-10T07:17:02.859Z,23.62
2018-08-10T07:18:02.849Z,23.62
2018-08-10T07:19:02.846Z,23.63
2018-08-10T07:20:02.813Z,23.64
2018-08-10T07:21:02.858Z,23.63
2018-08-10T07:22:02.842Z,23.63
2018-08-10T07:23:03.123Z,23.62
2018-08-10T07:24:02.698Z,23.63
2018-08-10T07:25:02.848Z,23.66
2018-08-10T07:26:02.831Z,23.66
2018-08-10T07:27:03.203Z,23.66
2018-08-10T07:28:02.744Z,23.67
2018-08-10T07:29:02.729Z,23.66
2018-08-10T07:30:02.784Z,23.67
2018-08-10T07:31:02.787Z,23.69
2018-08-10T07:32:02.725Z,23.67
2018-08-10T07:33:02.620Z,23.67
2018-08-10T07:34:02.834Z,23.7
2018-08-10T07:35:02.898Z,23.69
2018-08-10T07:36:02.714Z,23.7
2018-08-10T07:37:02.672Z,23.69
2018-08-10T07:38:02.759Z,23.7
2018-08-10T07:39:02.687Z,23.7
2018-08-10T07:40:02.857Z,23.7
2018-08-10T07:41:02.758Z,23.71
2018-08-10T07:42:03.005Z,23.7
2018-08-10T07:43:02.633Z,23.69
2018-08-10T07:44:02.833Z,23.7
2018-08-10T07:45:02.851Z,23.7
2018-08-10T07:46:02.840Z,23.7
2018-08-10T07:47:02.832Z,23.71
2018-08-10T07:48:02.810Z,23.73
2018-08-10T07:49:02.760Z,23.71
2018-08-10T07:50:02.755Z,23.71
2018-08-10T07:51:02.668Z,23.71
2018-08-10T07:52:03.237Z,23.71
2018-08-10T07:53:02.844Z,23.74
2018-08-10T07:54:02.898Z,23.74
2018-08-10T07:55:02.912Z,23.76
2018-08-10T07:56:02.684Z,23.74
2018-08-10T07:57:02.835Z,23.76
2018-08-10T07:58:02.850Z,23.79
2018-08-10T07:59:03.191Z,23.76
2018-08-10T08:00:02.668Z,23.73
2018-08-10T08:01:02.844Z,23.8
2018-08-10T08:02:02.851Z,23.77
2018-08-10T08:03:02.943Z,23.77
2018-08-10T08:04:02.772Z,23.77
2018-08-10T08:05:02.852Z,23.76
2018-08-10T08:06:03.150Z,23.79
2018-08-10T08:07:03.595Z,23.81
2018-08-10T08:08:02.595Z,23.77
2018-08-10T08:09:02.629Z,23.79
2018-08-10T08:10:02.720Z,23.8
2018-08-10T08:11:02.836Z,23.8
2018-08-10T08:12:02.771Z,23.8
2018-08-10T08:13:02.662Z,23.79
2018-08-10T08:14:02.887Z,23.8
2018-08-10T08:15:02.628Z,23.8
2018-08-10T08:16:02.624Z,23.81
2018-08-10T08:17:02.730Z,23.81
2018-08-10T08:18:03.389Z,23.8
2018-08-10T08:19:02.810Z,23.83
2018-08-10T08:20:02.818Z,23.81
2018-08-10T08:21:02.595Z,23.83
2018-08-10T08:22:02.707Z,23.81
2018-08-10T08:23:02.753Z,23.79
2018-08-10T08:24:02.749Z,23.81
2018-08-10T08:25:02.760Z,23.83
2018-08-10T08:26:02.783Z,23.83
2018-08-10T08:27:02.967Z,23.84
2018-08-10T08:28:02.756Z,23.83
2018-08-10T08:29:02.756Z,23.81
2018-08-10T08:30:02.830Z,23.84
2018-08-10T08:31:02.856Z,23.83
2018-08-10T08:32:02.852Z,23.83
2018-08-10T08:33:02.625Z,23.84
2018-08-10T08:34:02.940Z,23.84
2018-08-10T08:35:03.414Z,23.83
2018-08-10T08:36:02.622Z,23.85
2018-08-10T08:37:03.709Z,23.83
2018-08-10T08:38:02.616Z,23.85
2018-08-10T08:39:02.897Z,23.84
2018-08-10T08:40:02.760Z,23.85
2018-08-10T08:41:03.544Z,23.85
2018-08-10T08:42:02.681Z,23.84
2018-08-10T08:43:02.796Z,23.87
2018-08-10T08:44:02.759Z,23.88
2018-08-10T08:45:02.646Z,23.85
2018-08-10T08:46:04.777Z,23.85
2018-08-10T08:47:02.850Z,23.85
2018-08-10T08:48:02.752Z,23.88
2018-08-10T08:49:02.795Z,23.87
2018-08-10T08:50:03.295Z,23.88
2018-08-10T08:51:02.685Z,23.85
2018-08-10T08:52:02.734Z,23.87
2018-08-10T08:53:02.733Z,23.88
2018-08-10T08:54:03.119Z,23.88
2018-08-10T08:55:02.808Z,23.88
2018-08-10T08:56:02.895Z,23.9
2018-08-10T08:57:02.619Z,23.91
2018-08-10T08:58:02.836Z,23.87
2018-08-10T08:59:02.881Z,23.88
2018-08-10T09:00:02.920Z,23.9
2018-08-10T09:01:02.774Z,23.92
2018-08-10T09:02:02.735Z,23.9
2018-08-10T09:03:02.739Z,23.88
2018-08-10T09:04:02.664Z,23.9
2018-08-10T09:05:02.876Z,23.9
2018-08-10T09:06:02.818Z,23.9
2018-08-10T09:07:02.777Z,23.9
2018-08-10T09:08:02.844Z,23.91
2018-08-10T09:09:02.738Z,23.9
2018-08-10T09:10:03.223Z,23.91
2018-08-10T09:11:02.684Z,23.92
2018-08-10T09:12:02.673Z,23.91
2018-08-10T09:13:02.906Z,23.92
2018-08-10T09:14:02.832Z,23.92
2018-08-10T09:15:02.844Z,23.91
2018-08-10T09:16:02.725Z,23.94
2018-08-10T09:17:03.289Z,23.94
2018-08-10T09:18:02.833Z,23.91
2018-08-10T09:19:02.848Z,23.92
2018-08-10T09:20:02.962Z,23.92
2018-08-10T09:21:02.893Z,23.92
2018-08-10T09:22:02.870Z,23.95
2018-08-10T09:23:02.829Z,23.94
2018-08-10T09:24:02.776Z,23.92
2018-08-10T09:25:02.856Z,23.94
2018-08-10T09:26:02.634Z,23.95
2018-08-10T09:27:03.838Z,23.94
2018-08-10T09:28:02.887Z,23.94
2018-08-10T09:29:02.745Z,23.95
2018-08-10T09:30:02.958Z,23.97
2018-08-10T09:31:02.786Z,23.94
2018-08-10T09:32:02.617Z,23.94
2018-08-10T09:33:02.797Z,23.97
2018-08-10T09:34:02.774Z,23.94
2018-08-10T09:35:02.837Z,23.95
2018-08-10T09:36:02.688Z,23.94
2018-08-10T09:37:02.730Z,23.94
2018-08-10T09:38:02.677Z,23.94
2018-08-10T09:39:02.628Z,23.95
2018-08-10T09:40:02.647Z,23.95
2018-08-10T09:41:02.584Z,23.95
2018-08-10T09:42:03.044Z,23.95
2018-08-10T09:43:02.635Z,23.95
2018-08-10T09:44:02.800Z,23.95
2018-08-10T09:45:02.856Z,23.97
2018-08-10T09:46:02.644Z,23.97
2018-08-10T09:47:02.808Z,23.97
2018-08-10T09:48:02.773Z,23.98
2018-08-10T09:49:02.595Z,23.97
2018-08-10T09:50:02.551Z,23.97
2018-08-10T09:51:02.805Z,23.95
2018-08-10T09:52:02.669Z,23.98
2018-08-10T09:53:02.844Z,23.98
2018-08-10T09:54:02.637Z,23.97
2018-08-10T09:55:02.661Z,23.95
2018-08-10T09:56:02.969Z,23.98
2018-08-10T09:57:02.790Z,23.99
2018-08-10T09:58:02.759Z,23.99
2018-08-10T09:59:02.980Z,23.99
2018-08-10T10:00:02.892Z,23.98
2018-08-10T10:01:02.857Z,23.99
2018-08-10T10:02:02.734Z,23.98
2018-08-10T10:03:02.860Z,23.98
2018-08-10T10:04:02.918Z,23.99
2018-08-10T10:05:02.897Z,23.98
2018-08-10T10:06:02.865Z,23.99
2018-08-10T10:07:02.707Z,23.99
2018-08-10T10:08:02.850Z,23.98
2018-08-10T10:09:03.288Z,24.01
2018-08-10T10:10:02.611Z,24.01
2018-08-10T10:11:02.622Z,23.98
2018-08-10T10:12:02.633Z,24.01
2018-08-10T10:13:02.660Z,24.01
2018-08-10T10:14:02.656Z,24.01
2018-08-10T10:15:02.754Z,24.01
2018-08-10T10:16:03.097Z,23.99
2018-08-10T10:17:02.799Z,23.99
2018-08-10T10:18:02.962Z,24.01
2018-08-10T10:19:02.773Z,24.01
2018-08-10T10:20:02.816Z,23.99
2018-08-10T10:21:03.140Z,24.02
2018-08-10T10:22:02.833Z,23.99
2018-08-10T10:23:02.609Z,23.98
2018-08-10T10:24:02.945Z,24.01
2018-08-10T10:25:02.848Z,24.01
2018-08-10T10:26:02.784Z,24.01
2018-08-10T10:27:03.055Z,23.99
2018-08-10T10:28:02.855Z,23.99
2018-08-10T10:29:02.752Z,24.02
2018-08-10T10:30:02.600Z,24.02
2018-08-10T10:31:02.885Z,24.02
2018-08-10T10:32:02.743Z,24.01
2018-08-10T10:33:02.830Z,24.02
2018-08-10T10:34:02.837Z,24.02
2018-08-10T10:35:02.848Z,24.02
2018-08-10T10:36:02.629Z,24.02
2018-08-10T10:37:02.704Z,24.02
2018-08-10T10:38:02.759Z,24.02
2018-08-10T10:39:02.568Z,24.01
2018-08-10T10:40:02.509Z,24.02
2018-08-10T10:41:02.525Z,24.04
2018-08-10T10:42:02.888Z,24.04
2018-08-10T10:43:02.572Z,24.02
2018-08-10T10:44:02.893Z,23.99
2018-08-10T10:45:02.707Z,24.01
2018-08-10T10:46:02.586Z,24.01
2018-08-10T10:47:02.687Z,24.02
2018-08-10T10:48:02.971Z,24.02
2018-08-10T10:49:02.663Z,24.04
2018-08-10T10:50:02.536Z,24.01
2018-08-10T10:51:03.515Z,24.04
2018-08-10T10:52:02.685Z,24.02
2018-08-10T10:53:02.702Z,24.04
2018-08-10T10:54:02.822Z,24.01
2018-08-10T10:55:02.627Z,24.04
2018-08-10T10:56:02.609Z,24.02
2018-08-10T10:57:02.638Z,24.02
2018-08-10T10:58:02.571Z,24.04
2018-08-10T10:59:02.722Z,24.04
2018-08-10T11:00:02.847Z,24.01
2018-08-10T11:01:02.612Z,24.04
2018-08-10T11:02:02.801Z,24.04
2018-08-10T11:03:02.605Z,24.02
2018-08-10T11:04:02.764Z,24.02
2018-08-10T11:05:02.698Z,24.04
2018-08-10T11:06:02.754Z,24.05
2018-08-10T11:07:02.666Z,24.05
2018-08-10T11:08:02.483Z,24.05
2018-08-10T11:09:02.676Z,24.02
2018-08-10T11:10:02.833Z,24.04
2018-08-10T11:11:02.607Z,24.04
2018-08-10T11:12:02.769Z,24.02
2018-08-10T11:13:02.856Z,24.04
2018-08-10T11:14:02.802Z,24.05
2018-08-10T11:15:02.797Z,24.02
2018-08-10T11:16:02.649Z,24.02
2018-08-10T11:17:33.910Z,24.07
2018-08-10T11:18:03.246Z,24.04
2018-08-10T11:19:02.693Z,24.04
2018-08-10T11:20:02.904Z,24.02
2018-08-10T11:21:02.603Z,24.02
2018-08-10T11:22:02.582Z,24.04
2018-08-10T11:23:02.715Z,24.04
2018-08-10T11:24:03.284Z,24.02
2018-08-10T11:25:03.079Z,24.01
2018-08-10T11:26:03.352Z,24.04
2018-08-10T11:27:02.874Z,24.07
2018-08-10T11:28:02.603Z,24.07
2018-08-10T11:29:02.662Z,24.05
2018-08-10T11:30:02.853Z,24.05
2018-08-10T11:31:02.851Z,24.05
2018-08-10T11:32:03.395Z,24.05
2018-08-10T11:33:02.803Z,24.07
2018-08-10T11:34:02.637Z,24.04
2018-08-10T11:35:02.898Z,24.02
2018-08-10T11:36:02.882Z,24.04
2018-08-10T11:37:02.703Z,24.05
2018-08-10T11:38:02.737Z,24.05
2018-08-10T11:39:02.813Z,24.07
2018-08-10T11:40:02.750Z,24.07
2018-08-10T11:41:02.951Z,24.05
2018-08-10T11:42:02.879Z,24.05
2018-08-10T11:43:02.569Z,24.05
2018-08-10T11:44:02.755Z,24.07
2018-08-10T11:45:03.484Z,24.04
2018-08-10T11:46:02.911Z,24.07
2018-08-10T11:47:02.706Z,24.05
2018-08-10T11:48:03.099Z,24.04
2018-08-10T11:49:02.907Z,24.04
2018-08-10T11:50:03.405Z,24.04
2018-08-10T11:51:02.573Z,24.05
2018-08-10T11:52:02.686Z,24.05
2018-08-10T11:53:02.764Z,24.05
2018-08-10T11:54:02.651Z,24.05
2018-08-10T11:55:02.605Z,24.04
2018-08-10T11:56:02.589Z,24.05
2018-08-10T11:57:02.969Z,24.05
2018-08-10T11:58:02.859Z,24.05
2018-08-10T11:59:02.838Z,24.05
2018-08-10T12:00:03.442Z,24.07
2018-08-10T12:01:02.923Z,24.07
2018-08-10T12:02:03.477Z,24.07
2018-08-10T12:03:02.916Z,24.07
2018-08-10T12:04:02.584Z,24.08
2018-08-10T12:05:02.862Z,24.07
2018-08-10T12:06:04.218Z,24.07
2018-08-10T12:07:02.714Z,24.05
2018-08-10T12:08:02.737Z,24.05
2018-08-10T12:09:02.558Z,24.05
2018-08-10T12:10:02.726Z,24.07
2018-08-10T12:11:02.613Z,24.05
2018-08-10T12:12:02.651Z,24.05
2018-08-10T12:13:02.782Z,24.05
2018-08-10T12:14:02.561Z,24.07
2018-08-10T12:15:02.824Z,24.07
2018-08-10T12:16:02.568Z,24.07
2018-08-10T12:17:02.729Z,24.05
2018-08-10T12:18:02.554Z,24.01
2018-08-10T12:19:03.131Z,24.07
2018-08-10T12:20:02.616Z,24.07
2018-08-10T12:21:02.948Z,24.08
2018-08-10T12:22:02.789Z,24.05
2018-08-10T12:23:02.671Z,24.05
2018-08-10T12:24:02.606Z,24.05
2018-08-10T12:25:02.596Z,24.07
2018-08-10T12:26:02.614Z,24.08
2018-08-10T12:27:02.608Z,24.05
2018-08-10T12:28:02.635Z,24.04
2018-08-10T12:29:02.959Z,24.07
2018-08-10T12:30:02.801Z,24.09
2018-08-10T12:31:02.853Z,24.07
2018-08-10T12:32:02.973Z,24.07
2018-08-10T12:33:02.792Z,24.07
2018-08-10T12:34:02.850Z,24.08
2018-08-10T12:35:02.832Z,24.09
2018-08-10T12:36:03.065Z,24.12
2018-08-10T12:37:02.809Z,24.15
2018-08-10T12:38:02.668Z,24.15
2018-08-10T12:39:02.657Z,24.12
2018-08-10T12:40:02.791Z,24.11
2018-08-10T12:41:02.834Z,24.12
2018-08-10T12:42:02.577Z,24.14
2018-08-10T12:43:02.627Z,24.12
2018-08-10T12:44:02.561Z,24.15
2018-08-10T12:45:02.586Z,24.15
2018-08-10T12:46:02.874Z,24.14
2018-08-10T12:47:02.496Z,24.16
2018-08-10T12:48:02.889Z,24.18
2018-08-10T12:49:02.771Z,24.16
2018-08-10T12:50:02.550Z,24.15
2018-08-10T12:51:02.535Z,24.19
2018-08-10T12:52:02.845Z,24.18
2018-08-10T12:53:02.663Z,24.18
2018-08-10T12:54:02.622Z,24.19
2018-08-10T12:55:02.620Z,24.18